createdAt,value
2018-04-24T00:00:07.414Z,8.77
2018-04-24T00:05:08.735Z,5.03
2018-04-24T00:10:10.080Z,4.40
2018-04-24T00:15:11.410Z,11.37
2018-04-24T00:20:12.884Z,4.70
2018-04-24T00:25:14.207Z,10.83
2018-04-24T00:30:15.519Z,5.50
2018-04-24T00:35:17.626Z,9.23
2018-04-24T00:40:19.686Z,7.80
2018-04-24T00:45:20.994Z,8.07
2018-04-24T00:50:22.335Z,5.37
2018-04-24T00:55:23.682Z,6.47
2018-04-24T01:00:25.002Z,6.63
2018-04-24T01:05:27.088Z,8.10
2018-04-24T01:10:29.156Z,7.10
2018-04-24T01:15:30.480Z,5.83
2018-04-24T01:20:31.795Z,6.30
2018-04-24T01:25:33.115Z,5.70
2018-04-24T01:30:34.446Z,8.43
2018-04-24T01:35:35.793Z,8.37
2018-04-24T01:40:38.478Z,8.10
2018-04-24T01:45:40.552Z,12.30
2018-04-24T01:50:41.854Z,6.17
2018-04-24T01:55:43.207Z,9.87
2018-04-24T02:00:44.534Z,6.77
2018-04-24T02:05:45.881Z,9.10
2018-04-24T02:10:47.207Z,8.23
2018-04-24T02:15:48.522Z,7.57
2018-04-24T02:20:50.604Z,10.60
2018-04-24T02:25:51.937Z,10.33
2018-04-24T02:30:53.259Z,8.37
2018-04-24T02:35:55.308Z,9.63
2018-04-24T02:40:57.380Z,8.90
2018-04-24T02:45:58.735Z,6.50
2018-04-24T02:51:00.087Z,8.70
2018-04-24T02:56:02.167Z,9.63
2018-04-24T03:01:03.514Z,18.33
2018-04-24T03:06:04.835Z,9.13
2018-04-24T03:11:06.170Z,7.60
2018-04-24T03:16:08.282Z,9.00
2018-04-24T03:21:10.360Z,9.37
2018-04-24T03:26:11.691Z,8.87
2018-04-24T03:31:13.022Z,15.50
2018-04-24T03:36:14.366Z,11.90
2018-04-24T03:41:15.794Z,12.30
2018-04-24T03:46:17.135Z,10.50
2018-04-24T03:51:19.225Z,13.50
2018-04-24T03:56:20.570Z,16.83
2018-04-24T04:01:21.879Z,14.80
2018-04-24T04:06:23.222Z,15.03
2018-04-24T04:11:24.571Z,14.30
2018-04-24T04:16:25.910Z,14.40
2018-04-24T04:21:45.682Z,14.47
2018-04-24T04:26:46.994Z,16.43
2018-04-24T04:31:48.302Z,14.70
2018-04-24T04:36:49.630Z,15.47
2018-04-24T04:41:50.947Z,13.67
2018-04-24T04:46:52.279Z,12.77
2018-04-24T04:51:53.572Z,16.20
2018-04-24T04:56:54.894Z,9.20
2018-04-24T05:01:56.274Z,11.27
2018-04-24T05:06:57.611Z,8.37
2018-04-24T05:11:58.976Z,10.80
2018-04-24T05:17:00.267Z,6.90
2018-04-24T05:22:01.636Z,7.20
2018-04-24T05:27:02.988Z,8.00
2018-04-24T05:32:04.305Z,10.13
2018-04-24T05:37:05.631Z,6.33
2018-04-24T05:42:06.936Z,8.40
2018-04-24T05:47:08.978Z,8.17
2018-04-24T05:52:10.291Z,7.97
2018-04-24T05:57:11.619Z,6.93
2018-04-24T06:02:12.970Z,9.60
2018-04-24T06:07:14.290Z,5.37
2018-04-24T06:12:15.602Z,5.00
2018-04-24T06:17:17.658Z,7.30
2018-04-24T06:22:18.993Z,7.27
2018-04-24T06:27:20.323Z,8.10
2018-04-24T06:32:21.636Z,4.27
2018-04-24T06:37:22.962Z,13.23
2018-04-24T06:42:25.023Z,4.53
2018-04-24T06:47:26.368Z,15.60
2018-04-24T06:52:27.715Z,7.33
2018-04-24T06:57:29.052Z,6.53
2018-04-24T07:02:30.387Z,8.10
2018-04-24T07:07:31.710Z,7.30
2018-04-24T07:12:33.783Z,5.60
2018-04-24T07:17:35.099Z,7.10
2018-04-24T07:22:37.150Z,8.87
2018-04-24T07:27:38.470Z,8.20
2018-04-24T07:32:39.798Z,7.80
2018-04-24T07:37:41.888Z,7.43
2018-04-24T07:42:43.222Z,6.77
2018-04-24T07:47:44.549Z,11.77
2018-04-24T07:52:45.864Z,8.33
2018-04-24T07:57:47.947Z,8.70
2018-04-24T08:02:49.301Z,10.37
2018-04-24T08:07:50.617Z,8.50
2018-04-24T08:12:51.950Z,7.30
2018-04-24T08:17:54.826Z,7.83
2018-04-24T08:22:56.222Z,9.93
2018-04-24T08:27:57.494Z,10.40
2018-04-24T08:32:58.848Z,11.53
2018-04-24T08:38:00.190Z,9.80
2018-04-24T08:43:01.520Z,10.80
2018-04-24T08:48:03.637Z,11.03
2018-04-24T08:53:04.957Z,12.97
2018-04-24T08:58:06.274Z,13.80
2018-04-24T09:03:07.667Z,13.13
2018-04-24T09:08:09.016Z,13.60
2018-04-24T09:13:10.345Z,18.70
2018-04-24T09:18:11.665Z,19.50
2018-04-24T09:23:13.024Z,12.20
2018-04-24T09:28:14.377Z,14.93
2018-04-24T09:33:15.722Z,15.07
2018-04-24T09:38:17.792Z,16.57
2018-04-24T09:43:19.126Z,17.20
2018-04-24T09:48:21.183Z,18.83
2018-04-24T09:53:22.528Z,17.00
2018-04-24T09:58:24.601Z,20.50
2018-04-24T10:03:25.935Z,18.93
2018-04-24T10:08:27.278Z,27.70
2018-04-24T10:13:28.630Z,24.53
2018-04-24T10:18:29.954Z,26.50
2018-04-24T10:23:31.273Z,22.37
2018-04-24T10:28:32.596Z,21.83
2018-04-24T10:33:33.951Z,25.10
2018-04-24T10:38:35.286Z,18.87
2018-04-24T10:43:36.716Z,18.60
2018-04-24T10:48:38.025Z,21.93
2018-04-24T10:53:40.073Z,27.20
2018-04-24T10:58:41.419Z,27.80
2018-04-24T11:03:43.494Z,25.10
2018-04-24T11:08:44.819Z,25.50
2018-04-24T11:13:46.895Z,26.77
2018-04-24T11:18:48.218Z,23.57
2018-04-24T11:23:50.280Z,31.17
2018-04-24T11:28:51.673Z,21.60
2018-04-24T11:33:53.008Z,27.50
2018-04-24T11:38:55.084Z,28.50
2018-04-24T11:43:56.422Z,20.93
2018-04-24T11:48:57.769Z,22.97
2018-04-24T11:53:59.094Z,23.93
2018-04-24T11:59:00.414Z,29.23
2018-04-24T12:04:01.728Z,31.27
2018-04-24T12:09:03.111Z,27.17
2018-04-24T12:14:04.474Z,26.73
2018-04-24T12:19:05.822Z,25.03
2018-04-24T12:24:07.878Z,21.27
2018-04-24T12:29:09.224Z,19.33
2018-04-24T12:34:11.283Z,23.70
2018-04-24T12:39:12.629Z,17.43
2018-04-24T12:44:13.965Z,14.30
2018-04-24T12:49:15.323Z,13.43
2018-04-24T12:54:16.741Z,16.17
2018-04-24T12:59:19.133Z,13.57
2018-04-24T13:04:21.324Z,11.93
2018-04-24T13:09:22.692Z,13.70
2018-04-24T13:14:24.013Z,14.63
2018-04-24T13:19:25.365Z,12.97
2018-04-24T13:24:26.705Z,14.07
2018-04-24T13:29:28.030Z,12.97
2018-04-24T13:34:29.367Z,13.73
2018-04-24T13:39:30.698Z,11.43
2018-04-24T13:44:32.015Z,11.83
2018-04-24T13:49:33.355Z,17.17
2018-04-24T13:54:34.787Z,12.60
2018-04-24T13:59:36.119Z,20.03
2018-04-24T14:04:37.460Z,9.97
2018-04-24T14:09:38.782Z,11.27
2018-04-24T14:14:40.862Z,15.23
2018-04-24T14:19:42.181Z,12.70
2018-04-24T14:24:44.239Z,11.50
2018-04-24T14:29:45.555Z,12.30
2018-04-24T14:34:46.921Z,16.20
2018-04-24T14:39:48.250Z,12.17
2018-04-24T14:44:50.339Z,13.20
2018-04-24T14:49:51.675Z,14.77
2018-04-24T14:54:53.035Z,14.53
2018-04-24T14:59:55.090Z,14.93
2018-04-24T15:04:56.415Z,15.53
2018-04-24T15:09:57.735Z,24.03
2018-04-24T15:14:59.083Z,24.97
2018-04-24T15:20:00.400Z,25.73
2018-04-24T15:25:01.734Z,28.33
2018-04-24T15:30:03.063Z,33.47
2018-04-24T15:35:05.259Z,29.63
2018-04-24T15:40:06.543Z,32.60
2018-04-24T15:45:07.867Z,32.97
2018-04-24T15:50:09.204Z,30.30
2018-04-24T15:55:10.529Z,34.13
2018-04-24T16:00:12.603Z,28.97
2018-04-24T16:05:13.945Z,28.50
2018-04-24T16:10:15.338Z,26.53
2018-04-24T16:15:16.715Z,32.23
2018-04-24T16:20:18.827Z,24.83
2018-04-24T16:25:20.175Z,31.90
2018-04-24T16:30:21.502Z,30.70
2018-04-24T16:35:22.839Z,25.53
2018-04-24T16:40:24.199Z,28.23
2018-04-24T16:45:25.533Z,26.70
2018-04-24T16:50:26.878Z,26.73
2018-04-24T16:55:28.231Z,30.83
2018-04-24T17:00:30.334Z,27.40
2018-04-24T17:05:31.639Z,26.50
2018-04-24T17:10:33.031Z,20.50
2018-04-24T17:15:35.716Z,20.83
2018-04-24T17:20:37.884Z,21.57
2018-04-24T17:25:39.826Z,26.50
2018-04-24T17:30:41.205Z,18.40
2018-04-24T17:35:42.519Z,19.10
2018-04-24T17:40:43.883Z,19.87
2018-04-24T17:45:45.282Z,19.50
2018-04-24T17:50:46.686Z,22.53
2018-04-24T17:55:48.062Z,23.07
2018-04-24T18:00:49.427Z,29.40
2018-04-24T18:05:50.784Z,21.60
2018-04-24T18:10:52.150Z,26.47
2018-04-24T18:15:53.473Z,22.83
2018-04-24T18:20:55.526Z,24.60
2018-04-24T18:25:56.859Z,22.40
2018-04-24T18:30:59.029Z,20.77
2018-04-24T18:36:00.343Z,23.30
2018-04-24T18:41:01.676Z,22.60
2018-04-24T18:46:03.024Z,21.50
2018-04-24T18:51:04.566Z,25.53
2018-04-24T18:56:05.881Z,23.30
2018-04-24T19:01:07.267Z,18.67
2018-04-24T19:06:08.605Z,26.10
2018-04-24T19:11:10.765Z,19.07
2018-04-24T19:16:13.070Z,14.77
2018-04-24T19:21:15.408Z,20.07
2018-04-24T19:26:16.799Z,23.90
2018-04-24T19:31:24.445Z,25.60
2018-04-24T19:36:25.819Z,18.63
2018-04-24T19:41:34.112Z,22.80
2018-04-24T19:46:36.203Z,25.10
2018-04-24T19:51:37.530Z,21.37
2018-04-24T19:56:38.891Z,21.27
2018-04-24T20:01:41.014Z,18.30
2018-04-24T20:06:43.110Z,20.23
2018-04-24T20:11:45.196Z,19.87
2018-04-24T20:16:46.640Z,26.60
2018-04-24T20:21:47.978Z,22.17
2018-04-24T20:26:49.317Z,20.07
2018-04-24T20:31:50.676Z,21.47
2018-04-24T20:36:52.745Z,31.97
2018-04-24T20:41:54.068Z,23.03
2018-04-24T20:46:55.386Z,24.77
2018-04-24T20:51:56.822Z,24.33
2018-04-24T20:56:58.345Z,24.23
2018-04-24T21:02:00.482Z,30.43
2018-04-24T21:07:01.816Z,26.83
2018-04-24T21:12:03.170Z,27.70
2018-04-24T21:17:04.502Z,29.43
2018-04-24T21:22:05.997Z,27.70
2018-04-24T21:27:07.330Z,27.07
2018-04-24T21:32:08.639Z,28.90
2018-04-24T21:37:09.954Z,29.63
2018-04-24T21:42:11.285Z,29.70
2018-04-24T21:47:12.593Z,32.90
2018-04-24T21:52:13.916Z,31.37
2018-04-24T21:57:15.270Z,33.20
2018-04-24T22:02:16.607Z,34.23
2018-04-24T22:07:17.926Z,31.33
2018-04-24T22:12:20.002Z,35.73
2018-04-24T22:17:21.323Z,35.87
2018-04-24T22:22:23.394Z,34.73
2018-04-24T22:27:24.732Z,30.20
2018-04-24T22:32:26.785Z,37.83
2018-04-24T22:37:28.116Z,42.60
2018-04-24T22:42:30.175Z,35.33
2018-04-24T22:47:31.510Z,40.17
2018-04-24T22:52:33.558Z,42.13
2018-04-24T22:57:34.892Z,39.27
2018-04-24T23:02:36.210Z,45.07
2018-04-24T23:07:37.551Z,45.37
2018-04-24T23:12:57.345Z,41.07
2018-04-24T23:18:17.184Z,46.60
2018-04-24T23:23:18.511Z,40.60
2018-04-24T23:28:19.839Z,45.13
2018-04-24T23:33:21.174Z,40.43
2018-04-24T23:38:22.495Z,47.00
2018-04-24T23:43:24.571Z,43.67
2018-04-24T23:48:25.934Z,36.90
2018-04-24T23:53:27.273Z,46.20
2018-04-24T23:58:28.607Z,47.50
